createdAt,value
2023-02-23T00:02:30.491Z,10.60
2023-02-23T00:05:35.251Z,10.73
2023-02-23T00:08:37.420Z,10.88
2023-02-23T00:11:38.695Z,10.75
2023-02-23T00:14:40.170Z,11.98
2023-02-23T00:17:41.798Z,10.45
2023-02-23T00:20:48.370Z,10.40
2023-02-23T00:23:52.062Z,10.30
2023-02-23T00:26:53.389Z,10.25
2023-02-23T00:29:54.687Z,11.05
2023-02-23T00:32:55.983Z,11.07
2023-02-23T00:36:02.958Z,10.55
2023-02-23T00:39:11.943Z,10.65
2023-02-23T00:42:13.643Z,10.40
2023-02-23T00:45:15.088Z,11.38
2023-02-23T00:48:16.386Z,10.65
2023-02-23T00:51:18.580Z,10.88
2023-02-23T00:54:20.788Z,11.48
2023-02-23T00:57:22.543Z,11.18
2023-02-23T01:00:25.462Z,11.43
2023-02-23T01:03:27.297Z,10.48
2023-02-23T01:06:28.585Z,10.43
2023-02-23T01:09:29.881Z,12.43
2023-02-23T01:12:31.156Z,11.13
2023-02-23T01:15:32.605Z,10.65
2023-02-23T01:18:34.768Z,11.40
2023-02-23T01:21:37.716Z,12.70
2023-02-23T01:24:39.237Z,12.32
2023-02-23T01:27:41.255Z,11.25
2023-02-23T01:30:42.725Z,11.52
2023-02-23T01:33:44.175Z,11.85
2023-02-23T01:36:45.487Z,11.40
2023-02-23T01:39:47.074Z,13.23
2023-02-23T01:42:48.331Z,10.10
2023-02-23T01:45:49.678Z,12.00
2023-02-23T01:48:51.821Z,13.40
2023-02-23T01:51:57.816Z,10.75
2023-02-23T01:54:59.088Z,11.80
2023-02-23T01:58:19.636Z,11.75
2023-02-23T02:01:21.943Z,11.30
2023-02-23T02:04:25.293Z,11.40
2023-02-23T02:07:28.802Z,10.45
2023-02-23T02:10:46.659Z,10.73
2023-02-23T02:16:55.068Z,10.98
2023-02-23T02:20:12.701Z,12.18
2023-02-23T02:23:17.001Z,11.38
2023-02-23T02:26:21.664Z,11.27
2023-02-23T02:32:42.936Z,11.50
2023-02-23T02:35:46.955Z,11.55
2023-02-23T02:39:10.412Z,10.25
2023-02-23T02:42:14.750Z,10.00
2023-02-23T02:45:22.194Z,10.77
2023-02-23T02:48:38.580Z,11.23
2023-02-23T02:51:43.514Z,10.75
2023-02-23T02:54:48.491Z,10.43
2023-02-23T02:57:51.123Z,10.70
2023-02-23T03:01:11.517Z,10.68
2023-02-23T03:04:39.613Z,11.27
2023-02-23T03:08:03.535Z,10.98
2023-02-23T03:11:28.598Z,10.43
2023-02-23T03:14:54.935Z,10.48
2023-02-23T03:18:21.680Z,10.18
2023-02-23T03:21:46.037Z,11.30
2023-02-23T03:25:24.862Z,11.23
2023-02-23T03:28:49.500Z,11.60
2023-02-23T03:32:20.571Z,10.50
2023-02-23T03:35:52.685Z,12.20
2023-02-23T03:39:19.082Z,9.85
2023-02-23T03:42:43.018Z,11.10
2023-02-23T03:46:05.082Z,10.68
2023-02-23T03:49:26.903Z,10.00
2023-02-23T03:52:50.552Z,10.57
2023-02-23T03:56:13.997Z,11.38
2023-02-23T03:59:37.839Z,12.35
2023-02-23T04:02:58.821Z,10.68
2023-02-23T04:06:19.517Z,11.35
2023-02-23T04:09:39.310Z,10.73
2023-02-23T04:13:05.575Z,11.52
2023-02-23T04:16:08.072Z,11.35
2023-02-23T04:19:09.427Z,10.32
2023-02-23T04:22:10.726Z,11.52
2023-02-23T04:25:13.224Z,10.70
2023-02-23T04:28:14.610Z,11.20
2023-02-23T04:31:18.661Z,12.05
2023-02-23T04:34:20.283Z,10.90
2023-02-23T04:37:21.910Z,9.95
2023-02-23T04:40:24.367Z,10.77
2023-02-23T04:43:25.747Z,9.70
2023-02-23T04:46:27.039Z,11.02
2023-02-23T04:49:28.454Z,9.95
2023-02-23T04:52:29.706Z,10.05
2023-02-23T04:55:32.625Z,10.27
2023-02-23T04:58:33.887Z,10.45
2023-02-23T05:01:37.140Z,10.82
2023-02-23T05:04:38.560Z,10.98
2023-02-23T05:07:39.871Z,10.40
2023-02-23T05:10:41.212Z,10.93
2023-02-23T05:13:42.495Z,10.68
2023-02-23T05:16:43.815Z,12.50
2023-02-23T05:19:45.076Z,10.68
2023-02-23T05:22:46.297Z,11.50
2023-02-23T05:25:47.546Z,11.60
2023-02-23T05:28:48.869Z,12.02
2023-02-23T05:31:50.349Z,10.68
2023-02-23T05:34:51.798Z,11.35
2023-02-23T05:37:53.076Z,13.05
2023-02-23T05:40:54.415Z,11.45
2023-02-23T05:43:55.734Z,11.30
2023-02-23T05:46:57.089Z,12.15
2023-02-23T05:49:58.546Z,11.82
2023-02-23T05:52:59.936Z,12.40
2023-02-23T05:56:01.957Z,11.63
2023-02-23T05:59:04.768Z,11.02
2023-02-23T06:02:06.088Z,10.98
2023-02-23T06:05:08.133Z,11.40
2023-02-23T06:08:09.510Z,12.60
2023-02-23T06:11:10.808Z,12.40
2023-02-23T06:14:12.116Z,12.10
2023-02-23T06:17:13.409Z,11.07
2023-02-23T06:20:14.814Z,11.43
2023-02-23T06:23:16.095Z,11.43
2023-02-23T06:26:17.370Z,12.93
2023-02-23T06:29:18.640Z,12.43
2023-02-23T06:32:19.950Z,10.63
2023-02-23T06:35:21.251Z,13.23
2023-02-23T06:38:22.754Z,11.85
2023-02-23T06:41:24.450Z,13.02
2023-02-23T06:44:25.798Z,10.75
2023-02-23T06:47:27.135Z,14.70
2023-02-23T06:50:28.518Z,13.50
2023-02-23T06:53:30.783Z,11.90
2023-02-23T06:56:32.198Z,11.50
2023-02-23T06:59:33.461Z,14.18
2023-02-23T07:02:36.518Z,12.75
2023-02-23T07:05:37.847Z,13.40
2023-02-23T07:08:39.356Z,11.95
2023-02-23T07:11:41.623Z,12.90
2023-02-23T07:14:42.930Z,13.73
2023-02-23T07:17:45.082Z,10.73
2023-02-23T07:20:46.650Z,11.38
2023-02-23T07:23:49.737Z,15.20
2023-02-23T07:26:52.030Z,12.38
2023-02-23T07:29:53.444Z,12.75
2023-02-23T07:32:54.788Z,14.13
2023-02-23T07:35:56.053Z,11.70
2023-02-23T07:38:57.443Z,12.35
2023-02-23T07:41:58.740Z,10.38
2023-02-23T07:45:00.265Z,10.68
2023-02-23T07:48:01.720Z,11.65
2023-02-23T07:51:09.968Z,11.15
2023-02-23T07:54:11.420Z,10.60
2023-02-23T07:57:12.842Z,10.52
2023-02-23T08:00:14.356Z,12.13
2023-02-23T08:03:15.624Z,11.93
2023-02-23T08:06:17.409Z,10.30
2023-02-23T08:09:18.699Z,11.55
2023-02-23T08:12:20.120Z,11.25
2023-02-23T08:15:21.470Z,10.65
2023-02-23T08:18:22.761Z,10.52
2023-02-23T08:21:24.418Z,9.85
2023-02-23T08:24:26.578Z,10.48
2023-02-23T08:27:27.928Z,14.50
2023-02-23T08:30:29.269Z,11.13
2023-02-23T08:33:32.058Z,11.38
2023-02-23T08:36:33.407Z,10.45
2023-02-23T08:39:34.649Z,9.85
2023-02-23T08:42:35.957Z,10.57
2023-02-23T08:45:39.566Z,10.40
2023-02-23T08:48:40.891Z,11.32
2023-02-23T08:51:42.975Z,10.85
2023-02-23T08:54:44.263Z,13.05
2023-02-23T08:57:45.636Z,11.27
2023-02-23T09:00:46.955Z,10.73
2023-02-23T09:03:48.529Z,11.07
2023-02-23T09:06:50.054Z,9.48
2023-02-23T09:09:55.255Z,13.07
2023-02-23T09:12:56.528Z,10.65
2023-02-23T09:15:58.318Z,11.02
2023-02-23T09:19:01.300Z,11.52
2023-02-23T09:22:02.660Z,11.95
2023-02-23T09:25:04.908Z,12.10
2023-02-23T09:28:06.247Z,10.70
2023-02-23T09:31:08.668Z,11.63
2023-02-23T09:34:10.621Z,11.60
2023-02-23T09:37:11.881Z,9.85
2023-02-23T09:40:21.974Z,8.88
2023-02-23T09:43:28.251Z,9.63
2023-02-23T09:46:38.367Z,9.48
2023-02-23T09:49:40.942Z,8.80
2023-02-23T09:52:44.973Z,8.82
2023-02-23T09:55:47.570Z,7.43
2023-02-23T09:58:50.338Z,7.55
2023-02-23T10:01:51.686Z,7.25
2023-02-23T10:04:57.676Z,7.10
2023-02-23T10:08:12.576Z,8.32
2023-02-23T10:11:20.862Z,6.57
2023-02-23T10:14:26.861Z,7.00
2023-02-23T10:17:38.792Z,8.15
2023-02-23T10:20:58.178Z,7.10
2023-02-23T10:24:02.991Z,6.18
2023-02-23T10:27:07.633Z,6.35
2023-02-23T10:30:18.874Z,7.60
2023-02-23T10:33:34.880Z,6.07
2023-02-23T10:36:37.559Z,5.63
2023-02-23T10:39:40.376Z,7.57
2023-02-23T10:42:41.675Z,5.90
2023-02-23T10:45:47.832Z,5.70
2023-02-23T10:48:50.765Z,5.72
2023-02-23T10:51:52.360Z,5.82
2023-02-23T10:54:53.762Z,6.15
2023-02-23T10:58:02.693Z,7.20
2023-02-23T11:01:04.915Z,5.95
2023-02-23T11:04:19.146Z,6.28
2023-02-23T11:07:31.159Z,5.82
2023-02-23T11:10:32.450Z,5.38
2023-02-23T11:13:35.500Z,4.35
2023-02-23T11:16:39.072Z,4.70
2023-02-23T11:19:41.237Z,4.20
2023-02-23T11:22:42.739Z,3.97
2023-02-23T11:25:45.212Z,3.53
2023-02-23T11:28:46.960Z,3.28
2023-02-23T11:31:53.872Z,3.28
2023-02-23T11:35:12.064Z,3.80
2023-02-23T11:38:23.649Z,3.20
2023-02-23T11:41:25.067Z,3.63
2023-02-23T11:44:26.397Z,3.33
2023-02-23T11:47:27.732Z,3.47
2023-02-23T11:50:33.554Z,3.20
2023-02-23T11:53:44.993Z,3.22
2023-02-23T11:56:50.417Z,3.33
2023-02-23T11:59:52.156Z,2.88
2023-02-23T12:03:00.795Z,3.20
2023-02-23T12:06:02.454Z,3.38
2023-02-23T12:09:18.470Z,3.70
2023-02-23T12:12:22.842Z,3.25
2023-02-23T12:15:31.225Z,3.75
2023-02-23T12:18:35.551Z,3.72
2023-02-23T12:21:36.855Z,4.28
2023-02-23T12:24:44.305Z,3.50
2023-02-23T12:27:54.030Z,2.90
2023-02-23T12:30:55.299Z,2.70
2023-02-23T12:34:02.462Z,2.88
2023-02-23T12:37:07.473Z,3.03
2023-02-23T12:40:19.168Z,3.03
2023-02-23T12:43:32.869Z,3.10
2023-02-23T12:46:37.649Z,3.40
2023-02-23T12:49:44.585Z,3.60
2023-02-23T12:52:48.067Z,3.05
2023-02-23T12:55:55.719Z,3.05
2023-02-23T12:59:03.299Z,2.65
2023-02-23T13:02:15.274Z,2.80
2023-02-23T13:05:26.886Z,3.08
2023-02-23T13:08:46.368Z,5.00
2023-02-23T13:11:59.767Z,2.90
2023-02-23T13:15:09.941Z,3.33
2023-02-23T13:18:29.884Z,2.28
2023-02-23T13:21:44.611Z,2.10
2023-02-23T13:24:47.568Z,2.10
2023-02-23T13:27:51.775Z,2.65
2023-02-23T13:30:53.675Z,2.58
2023-02-23T13:33:56.653Z,2.10
2023-02-23T13:36:59.236Z,1.80
2023-02-23T13:40:03.548Z,2.70
2023-02-23T13:43:17.670Z,2.03
2023-02-23T13:46:22.013Z,2.50
2023-02-23T13:49:47.121Z,2.05
2023-02-23T13:52:48.783Z,2.10
2023-02-23T13:55:51.613Z,2.47
2023-02-23T13:58:52.934Z,3.22
2023-02-23T14:01:55.013Z,3.25
2023-02-23T14:04:57.101Z,2.40
2023-02-23T14:08:02.213Z,2.88
2023-02-23T14:11:03.984Z,2.83
2023-02-23T14:14:05.491Z,2.40
2023-02-23T14:17:16.063Z,2.38
2023-02-23T14:20:29.504Z,3.17
2023-02-23T14:24:02.104Z,2.42
2023-02-23T14:27:39.852Z,2.42
2023-02-23T14:30:51.412Z,3.58
2023-02-23T14:36:55.980Z,2.78
2023-02-23T14:40:01.522Z,2.65
2023-02-23T14:43:03.688Z,2.60
2023-02-23T14:46:09.349Z,2.92
2023-02-23T14:49:17.530Z,3.28
2023-02-23T14:52:21.645Z,3.13
2023-02-23T14:58:28.906Z,2.63
2023-02-23T15:01:34.632Z,3.70
2023-02-23T15:04:38.729Z,2.85
2023-02-23T15:07:41.039Z,2.58
2023-02-23T15:10:43.933Z,2.65
2023-02-23T15:13:50.246Z,2.47
2023-02-23T15:16:51.680Z,3.33
2023-02-23T15:20:05.966Z,3.20
2023-02-23T15:23:16.826Z,3.00
2023-02-23T15:26:24.419Z,3.13
2023-02-23T15:29:30.384Z,2.60
2023-02-23T15:32:31.734Z,2.97
2023-02-23T15:35:44.974Z,3.10
2023-02-23T15:38:47.756Z,2.70
2023-02-23T15:41:49.433Z,3.40
2023-02-23T15:44:55.524Z,3.50
2023-02-23T15:47:58.073Z,2.63
2023-02-23T15:50:59.431Z,3.08
2023-02-23T15:54:02.451Z,4.05
2023-02-23T15:57:14.071Z,4.65
2023-02-23T16:00:27.214Z,3.60
2023-02-23T16:03:32.549Z,3.80
2023-02-23T16:06:35.487Z,3.35
2023-02-23T16:09:38.328Z,3.55
2023-02-23T16:12:39.863Z,3.47
2023-02-23T16:15:41.608Z,3.88
2023-02-23T16:18:43.156Z,3.00
2023-02-23T16:21:49.453Z,3.67
2023-02-23T16:24:55.745Z,3.15
2023-02-23T16:28:02.543Z,3.22
2023-02-23T16:31:05.157Z,3.67
2023-02-23T16:34:18.755Z,3.58
2023-02-23T16:37:23.061Z,3.20
2023-02-23T16:40:24.543Z,4.03
2023-02-23T16:43:25.877Z,3.22
2023-02-23T16:46:29.164Z,3.40
2023-02-23T16:49:31.186Z,3.50
2023-02-23T16:52:32.622Z,4.57
2023-02-23T16:55:39.128Z,3.53
2023-02-23T16:58:42.461Z,3.83
2023-02-23T17:01:46.430Z,3.90
2023-02-23T17:04:51.527Z,3.72
2023-02-23T17:07:53.506Z,3.33
2023-02-23T17:10:55.913Z,4.18
2023-02-23T17:13:57.203Z,3.80
2023-02-23T17:16:59.284Z,3.90
2023-02-23T17:20:00.708Z,4.00
2023-02-23T17:23:02.452Z,5.20
2023-02-23T17:26:05.615Z,4.20
2023-02-23T17:29:06.910Z,3.92
2023-02-23T17:32:08.413Z,4.25
2023-02-23T17:35:10.042Z,5.57
2023-02-23T17:38:11.393Z,3.75
2023-02-23T17:41:14.766Z,4.25
2023-02-23T17:44:16.112Z,4.78
2023-02-23T17:47:17.773Z,5.13
2023-02-23T17:50:22.644Z,5.47
2023-02-23T17:53:24.445Z,4.82
2023-02-23T17:56:25.783Z,4.70
2023-02-23T17:59:27.127Z,4.43
2023-02-23T18:02:28.459Z,4.80
2023-02-23T18:05:29.838Z,4.55
2023-02-23T18:08:31.724Z,5.65
2023-02-23T18:11:34.093Z,4.68
2023-02-23T18:14:35.663Z,4.78
2023-02-23T18:17:37.088Z,5.22
2023-02-23T18:20:38.434Z,4.78
2023-02-23T18:23:39.818Z,5.57
2023-02-23T18:26:41.353Z,5.07
2023-02-23T18:29:42.717Z,9.70
2023-02-23T18:32:44.159Z,6.13
2023-02-23T18:35:45.566Z,6.30
2023-02-23T18:38:46.915Z,5.22
2023-02-23T18:41:49.021Z,5.18
2023-02-23T18:44:50.424Z,6.13
2023-02-23T18:47:51.772Z,6.18
2023-02-23T18:50:56.642Z,5.43
2023-02-23T18:53:57.943Z,5.72
2023-02-23T18:56:59.220Z,6.32
2023-02-23T19:00:00.546Z,5.05
2023-02-23T19:03:02.569Z,5.20
2023-02-23T19:06:08.890Z,6.30
2023-02-23T19:09:12.546Z,5.60
2023-02-23T19:12:14.623Z,7.43
2023-02-23T19:15:16.048Z,5.50
2023-02-23T19:18:17.437Z,7.15
2023-02-23T19:21:22.560Z,6.03
2023-02-23T19:24:24.523Z,5.65
2023-02-23T19:27:25.832Z,5.53
2023-02-23T19:30:27.132Z,5.38
2023-02-23T19:33:28.503Z,5.90
2023-02-23T19:36:31.586Z,6.97
2023-02-23T19:39:32.893Z,5.22
2023-02-23T19:42:35.129Z,5.63
2023-02-23T19:45:36.469Z,6.97
2023-02-23T19:48:38.273Z,6.20
2023-02-23T19:51:39.712Z,5.95
2023-02-23T19:54:41.074Z,6.25
2023-02-23T19:57:42.624Z,7.05
2023-02-23T20:00:47.257Z,6.55
2023-02-23T20:06:50.898Z,7.93
2023-02-23T20:09:52.409Z,7.95
2023-02-23T20:12:53.761Z,7.78
2023-02-23T20:16:02.453Z,7.40
2023-02-23T20:19:06.439Z,7.97
2023-02-23T20:22:08.826Z,7.00
2023-02-23T20:25:12.584Z,6.18
2023-02-23T20:28:13.895Z,6.90
2023-02-23T20:31:21.063Z,6.45
2023-02-23T20:34:24.367Z,7.65
2023-02-23T20:37:26.234Z,5.97
2023-02-23T20:40:27.546Z,7.03
2023-02-23T20:43:29.746Z,7.85
2023-02-23T20:46:31.250Z,7.20
2023-02-23T20:49:32.559Z,6.85
2023-02-23T20:52:35.008Z,8.27
2023-02-23T20:55:36.464Z,6.57
2023-02-23T20:58:39.679Z,6.38
2023-02-23T21:01:42.154Z,6.72
2023-02-23T21:04:44.274Z,6.25
2023-02-23T21:07:45.774Z,7.30
2023-02-23T21:10:48.637Z,7.28
2023-02-23T21:13:49.961Z,6.57
2023-02-23T21:16:51.335Z,7.07
2023-02-23T21:19:52.650Z,6.47
2023-02-23T21:22:54.307Z,7.20
2023-02-23T21:25:58.050Z,7.93
2023-02-23T21:28:59.385Z,7.57
2023-02-23T21:32:00.790Z,5.63
2023-02-23T21:35:02.178Z,7.13
2023-02-23T21:38:04.058Z,6.75
2023-02-23T21:41:05.869Z,6.55
2023-02-23T21:44:08.068Z,7.43
2023-02-23T21:47:09.467Z,8.77
2023-02-23T21:50:13.440Z,7.15
2023-02-23T21:53:14.745Z,6.50
2023-02-23T21:56:17.350Z,6.63
2023-02-23T21:59:19.522Z,6.20
2023-02-23T22:02:20.829Z,6.60
2023-02-23T22:05:22.216Z,7.10
2023-02-23T22:08:23.611Z,8.05
2023-02-23T22:11:26.714Z,7.03
2023-02-23T22:14:28.034Z,7.35
2023-02-23T22:17:30.976Z,6.78
2023-02-23T22:20:32.480Z,6.93
2023-02-23T22:23:36.719Z,8.02
2023-02-23T22:26:41.732Z,7.40
2023-02-23T22:29:43.089Z,5.88
2023-02-23T22:32:44.682Z,6.60
2023-02-23T22:35:46.332Z,6.75
2023-02-23T22:38:47.604Z,6.97
2023-02-23T22:41:48.969Z,6.65
2023-02-23T22:44:50.725Z,6.03
2023-02-23T22:47:52.073Z,5.68
2023-02-23T22:50:53.355Z,6.72
2023-02-23T22:53:54.660Z,5.10
2023-02-23T22:56:55.939Z,5.05
2023-02-23T23:00:00.576Z,7.28
2023-02-23T23:06:08.592Z,6.28
2023-02-23T23:09:14.869Z,6.05
2023-02-23T23:12:18.033Z,5.63
2023-02-23T23:15:22.169Z,6.43
2023-02-23T23:18:24.476Z,5.20
2023-02-23T23:21:27.918Z,5.80
2023-02-23T23:24:29.310Z,7.38
2023-02-23T23:27:33.099Z,6.32
2023-02-23T23:30:35.237Z,7.07
2023-02-23T23:33:39.861Z,6.45
2023-02-23T23:39:59.203Z,6.57
2023-02-23T23:43:01.943Z,7.10
2023-02-23T23:46:05.264Z,6.43
2023-02-23T23:49:10.925Z,6.88
2023-02-23T23:52:17.682Z,6.72
2023-02-23T23:55:19.185Z,6.03
2023-02-23T23:58:20.601Z,7.35
